createdAt,value
2018-06-08T00:01:14.396Z,20.28
2018-06-08T00:03:43.215Z,20.30
2018-06-08T00:06:12.069Z,20.27
2018-06-08T00:08:40.947Z,20.24
2018-06-08T00:11:09.851Z,20.29
2018-06-08T00:13:38.953Z,20.36
2018-06-08T00:16:07.914Z,20.38
2018-06-08T00:18:36.755Z,20.37
2018-06-08T00:21:05.789Z,20.39
2018-06-08T00:23:34.803Z,20.36
2018-06-08T00:26:03.826Z,20.36
2018-06-08T00:28:34.378Z,20.35
2018-06-08T00:31:03.239Z,20.27
2018-06-08T00:33:32.458Z,20.24
2018-06-08T00:36:01.330Z,20.24
2018-06-08T00:38:30.582Z,20.23
2018-06-08T00:40:59.631Z,20.20
2018-06-08T00:43:28.641Z,20.18
2018-06-08T00:45:57.573Z,20.18
2018-06-08T00:48:26.889Z,20.19
2018-06-08T00:50:55.903Z,20.18
2018-06-08T00:53:24.992Z,20.19
2018-06-08T00:55:54.115Z,20.14
2018-06-08T00:58:23.019Z,20.05
2018-06-08T01:00:51.896Z,20.03
2018-06-08T01:03:20.814Z,19.97
2018-06-08T01:05:49.827Z,19.96
2018-06-08T01:08:18.651Z,19.90
2018-06-08T01:10:47.507Z,19.87
2018-06-08T01:13:16.612Z,19.82
2018-06-08T01:15:45.490Z,19.77
2018-06-08T01:18:14.511Z,19.69
2018-06-08T01:20:43.269Z,19.64
2018-06-08T01:23:12.293Z,19.61
2018-06-08T01:25:41.326Z,19.57
2018-06-08T01:28:10.441Z,19.51
2018-06-08T01:30:39.727Z,19.54
2018-06-08T01:33:08.688Z,19.50
2018-06-08T01:35:37.763Z,19.47
2018-06-08T01:38:06.521Z,19.50
2018-06-08T01:40:35.390Z,19.52
2018-06-08T01:43:04.406Z,19.52
2018-06-08T01:45:33.211Z,19.55
2018-06-08T01:48:02.133Z,19.55
2018-06-08T01:50:31.197Z,19.57
2018-06-08T01:53:00.499Z,19.53
2018-06-08T01:55:29.798Z,19.52
2018-06-08T01:57:58.659Z,19.43
2018-06-08T02:00:27.458Z,19.53
2018-06-08T02:02:56.525Z,19.55
2018-06-08T02:05:25.358Z,19.49
2018-06-08T02:07:54.751Z,19.44
2018-06-08T02:10:23.626Z,19.40
2018-06-08T02:12:52.636Z,19.40
2018-06-08T02:15:21.702Z,19.43
2018-06-08T02:17:50.704Z,19.49
2018-06-08T02:20:19.773Z,19.61
2018-06-08T02:22:48.809Z,19.54
2018-06-08T02:25:17.602Z,19.49
2018-06-08T02:27:46.590Z,19.44
2018-06-08T02:30:15.628Z,19.40
2018-06-08T02:32:44.430Z,19.37
2018-06-08T02:35:13.257Z,19.31
2018-06-08T02:37:42.376Z,19.40
2018-06-08T02:40:11.227Z,19.39
2018-06-08T02:42:40.152Z,19.33
2018-06-08T02:45:09.018Z,19.20
2018-06-08T02:47:37.804Z,19.21
2018-06-08T02:50:06.863Z,19.19
2018-06-08T02:52:35.758Z,19.23
2018-06-08T02:55:04.629Z,19.24
2018-06-08T02:57:33.653Z,19.19
2018-06-08T03:00:02.596Z,19.22
2018-06-08T03:02:31.565Z,19.24
2018-06-08T03:05:00.545Z,19.19
2018-06-08T03:07:29.443Z,19.14
2018-06-08T03:09:58.314Z,19.12
2018-06-08T03:12:27.312Z,19.10
2018-06-08T03:14:56.242Z,19.10
2018-06-08T03:17:25.382Z,19.12
2018-06-08T03:19:54.345Z,19.13
2018-06-08T03:22:23.694Z,19.13
2018-06-08T03:24:52.901Z,19.09
2018-06-08T03:27:21.901Z,19.12
2018-06-08T03:29:50.925Z,19.12
2018-06-08T03:32:19.789Z,19.10
2018-06-08T03:34:48.971Z,19.11
2018-06-08T03:37:18.062Z,19.16
2018-06-08T03:39:47.014Z,19.15
2018-06-08T03:42:16.180Z,19.19
2018-06-08T03:44:45.142Z,19.12
2018-06-08T03:47:14.233Z,19.19
2018-06-08T03:49:43.550Z,19.15
2018-06-08T03:52:12.519Z,19.21
2018-06-08T03:54:41.431Z,19.21
2018-06-08T03:57:10.375Z,19.24
2018-06-08T03:59:39.261Z,19.27
2018-06-08T04:02:08.381Z,19.27
2018-06-08T04:04:37.519Z,19.31
2018-06-08T04:07:06.583Z,19.37
2018-06-08T04:09:35.642Z,19.48
2018-06-08T04:12:04.522Z,19.51
2018-06-08T04:14:33.585Z,19.48
2018-06-08T04:17:02.850Z,19.55
2018-06-08T04:19:31.693Z,19.64
2018-06-08T04:22:00.715Z,19.67
2018-06-08T04:24:29.710Z,19.73
2018-06-08T04:26:58.932Z,19.74
2018-06-08T04:29:27.770Z,19.81
2018-06-08T04:31:56.516Z,19.85
2018-06-08T04:34:25.408Z,19.84
2018-06-08T04:36:54.424Z,19.90
2018-06-08T04:39:23.258Z,19.84
2018-06-08T04:41:52.307Z,19.88
2018-06-08T04:44:21.427Z,19.97
2018-06-08T04:46:50.634Z,20.10
2018-06-08T04:49:19.497Z,20.09
2018-06-08T04:51:48.494Z,19.94
2018-06-08T04:54:17.487Z,20.25
2018-06-08T04:56:46.405Z,20.25
2018-06-08T04:59:15.426Z,20.37
2018-06-08T05:01:44.601Z,20.49
2018-06-08T05:04:13.931Z,20.54
2018-06-08T05:06:42.922Z,20.63
2018-06-08T05:09:12.109Z,20.59
2018-06-08T05:11:41.004Z,20.59
2018-06-08T05:14:10.154Z,20.59
2018-06-08T05:16:39.055Z,20.60
2018-06-08T05:19:08.081Z,20.81
2018-06-08T05:21:37.097Z,20.91
2018-06-08T05:24:06.240Z,20.90
2018-06-08T05:26:35.254Z,20.99
2018-06-08T05:29:04.389Z,21.06
2018-06-08T05:31:33.373Z,20.99
2018-06-08T05:34:03.341Z,21.16
2018-06-08T05:36:32.276Z,21.09
2018-06-08T05:39:01.585Z,21.22
2018-06-08T05:41:30.553Z,21.36
2018-06-08T05:43:59.553Z,21.37
2018-06-08T05:46:28.403Z,21.51
2018-06-08T05:48:57.742Z,21.68
2018-06-08T05:51:26.732Z,21.78
2018-06-08T05:53:56.019Z,21.93
2018-06-08T05:56:24.884Z,21.91
2018-06-08T05:58:53.674Z,21.87
2018-06-08T06:01:22.785Z,21.89
2018-06-08T06:03:51.746Z,21.91
2018-06-08T06:06:20.734Z,21.96
2018-06-08T06:08:49.614Z,22.05
2018-06-08T06:11:18.671Z,22.18
2018-06-08T06:13:47.582Z,22.19
2018-06-08T06:16:16.518Z,22.23
2018-06-08T06:18:45.362Z,22.37
2018-06-08T06:21:14.302Z,22.44
2018-06-08T06:23:43.417Z,22.01
2018-06-08T06:26:12.426Z,22.37
2018-06-08T06:28:41.621Z,22.39
2018-06-08T06:31:10.495Z,22.28
2018-06-08T06:33:39.589Z,22.51
2018-06-08T06:36:08.552Z,22.33
2018-06-08T06:38:37.421Z,22.33
2018-06-08T06:41:06.259Z,22.51
2018-06-08T06:43:35.177Z,22.55
2018-06-08T06:46:04.207Z,22.59
2018-06-08T06:48:32.989Z,22.61
2018-06-08T06:51:02.064Z,22.73
2018-06-08T06:53:31.073Z,22.78
2018-06-08T06:56:00.126Z,22.65
2018-06-08T06:58:28.823Z,22.68
2018-06-08T07:00:57.695Z,22.79
2018-06-08T07:03:26.510Z,22.84
2018-06-08T07:05:56.289Z,22.96
2018-06-08T07:08:25.209Z,23.19
2018-06-08T07:10:54.081Z,23.12
2018-06-08T07:13:23.190Z,23.12
2018-06-08T07:15:52.390Z,23.28
2018-06-08T07:18:21.618Z,23.33
2018-06-08T07:20:50.362Z,23.42
2018-06-08T07:23:19.402Z,23.42
2018-06-08T07:25:48.572Z,23.55
2018-06-08T07:28:17.748Z,23.47
2018-06-08T07:30:46.703Z,23.56
2018-06-08T07:33:15.675Z,23.73
2018-06-08T07:35:44.781Z,23.74
2018-06-08T07:38:13.510Z,24.01
2018-06-08T07:40:42.426Z,23.85
2018-06-08T07:43:11.695Z,24.02
2018-06-08T07:45:40.820Z,24.10
2018-06-08T07:48:10.458Z,24.12
2018-06-08T07:50:39.409Z,24.33
2018-06-08T07:53:08.235Z,24.29
2018-06-08T07:55:37.148Z,24.41
2018-06-08T07:58:06.224Z,24.37
2018-06-08T08:00:35.401Z,24.13
2018-06-08T08:03:04.492Z,24.21
2018-06-08T08:05:33.799Z,24.35
2018-06-08T08:08:02.512Z,24.37
2018-06-08T08:10:31.586Z,24.64
2018-06-08T08:13:00.736Z,24.72
2018-06-08T08:15:29.740Z,24.79
2018-06-08T08:18:05.586Z,25.02
2018-06-08T08:20:35.188Z,24.75
2018-06-08T08:23:04.743Z,24.75
2018-06-08T08:25:33.454Z,24.90
2018-06-08T08:28:02.225Z,25.12
2018-06-08T08:30:31.166Z,25.23
2018-06-08T08:33:00.144Z,25.10
2018-06-08T08:35:29.343Z,25.27
2018-06-08T08:37:58.279Z,25.37
2018-06-08T08:40:27.216Z,25.29
2018-06-08T08:42:56.158Z,25.43
2018-06-08T08:45:25.110Z,25.63
2018-06-08T08:47:53.984Z,25.80
2018-06-08T08:50:22.756Z,25.75
2018-06-08T08:52:51.838Z,25.70
2018-06-08T08:55:20.744Z,25.89
2018-06-08T08:57:49.601Z,25.93
2018-06-08T09:00:18.782Z,26.22
2018-06-08T09:02:47.570Z,26.15
2018-06-08T09:05:16.826Z,26.33
2018-06-08T09:07:45.687Z,26.14
2018-06-08T09:10:14.537Z,26.51
2018-06-08T09:12:43.254Z,26.80
2018-06-08T09:15:12.286Z,26.95
2018-06-08T09:17:41.309Z,27.30
2018-06-08T09:20:10.535Z,27.51
2018-06-08T09:22:39.649Z,27.79
2018-06-08T09:25:08.606Z,28.06
2018-06-08T09:27:37.660Z,28.20
2018-06-08T09:30:06.518Z,28.23
2018-06-08T09:32:35.369Z,28.31
2018-06-08T09:35:04.254Z,28.19
2018-06-08T09:37:33.165Z,28.40
2018-06-08T09:40:02.294Z,28.44
2018-06-08T09:42:31.033Z,28.31
2018-06-08T09:45:00.979Z,28.24
2018-06-08T09:47:30.150Z,28.10
2018-06-08T09:49:58.908Z,28.30
2018-06-08T09:52:27.915Z,28.44
2018-06-08T09:54:56.680Z,28.69
2018-06-08T09:57:25.859Z,28.61
2018-06-08T09:59:55.116Z,28.36
2018-06-08T10:02:23.974Z,28.43
2018-06-08T10:04:52.802Z,28.29
2018-06-08T10:07:21.627Z,28.15
2018-06-08T10:09:50.659Z,28.24
2018-06-08T10:12:19.631Z,28.44
2018-06-08T10:14:48.820Z,28.49
2018-06-08T10:17:18.075Z,28.38
2018-06-08T10:19:46.925Z,28.62
2018-06-08T10:22:15.918Z,28.58
2018-06-08T10:24:44.917Z,28.67
2018-06-08T10:27:13.733Z,28.71
2018-06-08T10:29:42.445Z,28.68
2018-06-08T10:32:11.806Z,28.87
2018-06-08T10:34:40.740Z,29.02
2018-06-08T10:37:09.442Z,29.03
2018-06-08T10:39:38.465Z,29.13
2018-06-08T10:42:07.242Z,28.65
2018-06-08T10:44:36.159Z,28.49
2018-06-08T10:47:04.898Z,28.68
2018-06-08T10:49:34.033Z,28.88
2018-06-08T10:52:03.098Z,28.87
2018-06-08T10:54:32.293Z,28.90
2018-06-08T10:57:01.128Z,29.12
2018-06-08T10:59:30.047Z,28.96
2018-06-08T11:01:59.226Z,29.22
2018-06-08T11:04:29.434Z,29.34
2018-06-08T11:06:58.150Z,29.44
2018-06-08T11:09:27.066Z,29.63
2018-06-08T11:11:55.932Z,29.73
2018-06-08T11:14:25.068Z,29.86
2018-06-08T11:16:54.078Z,29.92
2018-06-08T11:19:23.176Z,29.66
2018-06-08T11:21:52.003Z,29.42
2018-06-08T11:24:21.101Z,29.62
2018-06-08T11:26:50.292Z,29.76
2018-06-08T11:29:19.170Z,29.92
2018-06-08T11:31:48.708Z,29.74
2018-06-08T11:34:17.969Z,29.66
2018-06-08T11:36:46.727Z,29.91
2018-06-08T11:39:15.505Z,30.03
2018-06-08T11:41:44.438Z,30.01
2018-06-08T11:44:13.529Z,30.01
2018-06-08T11:46:42.555Z,30.44
2018-06-08T11:49:11.339Z,30.64
2018-06-08T11:51:40.340Z,31.15
2018-06-08T11:54:09.841Z,31.65
2018-06-08T11:56:39.174Z,32.28
2018-06-08T11:59:08.429Z,32.89
2018-06-08T12:01:37.405Z,33.63
2018-06-08T12:04:06.475Z,34.06
2018-06-08T12:06:35.471Z,34.46
2018-06-08T12:09:06.466Z,34.68
2018-06-08T12:11:35.451Z,34.98
2018-06-08T12:14:04.698Z,35.52
2018-06-08T12:16:33.783Z,35.91
2018-06-08T12:19:02.835Z,36.45
2018-06-08T12:21:31.685Z,36.49
2018-06-08T12:24:00.928Z,37.28
2018-06-08T12:26:29.983Z,37.47
2018-06-08T12:28:59.283Z,37.75
2018-06-08T12:31:28.157Z,37.14
2018-06-08T12:33:57.628Z,36.29
2018-06-08T12:36:26.541Z,37.18
2018-06-08T12:38:55.600Z,37.77
2018-06-08T12:41:24.584Z,38.62
2018-06-08T12:43:54.013Z,39.32
2018-06-08T12:46:23.137Z,39.84
2018-06-08T12:48:52.302Z,40.51
2018-06-08T12:51:21.015Z,41.24
2018-06-08T12:53:50.292Z,41.56
2018-06-08T12:56:19.494Z,41.63
2018-06-08T12:58:48.565Z,41.53
2018-06-08T13:01:17.482Z,41.95
2018-06-08T13:03:46.621Z,42.58
2018-06-08T13:06:15.839Z,42.31
2018-06-08T13:08:44.631Z,42.11
2018-06-08T13:11:13.526Z,41.01
2018-06-08T13:13:42.665Z,41.13
2018-06-08T13:16:11.622Z,41.08
2018-06-08T13:18:40.647Z,41.74
2018-06-08T13:21:09.560Z,42.65
2018-06-08T13:23:39.150Z,42.67
2018-06-08T13:26:09.714Z,42.47
2018-06-08T13:28:38.582Z,42.52
2018-06-08T13:31:07.576Z,42.81
2018-06-08T13:33:36.841Z,42.79
2018-06-08T13:36:05.849Z,42.09
2018-06-08T13:38:34.651Z,41.64
2018-06-08T13:41:03.455Z,42.15
2018-06-08T13:43:32.522Z,42.41
2018-06-08T13:46:01.654Z,40.77
2018-06-08T13:48:30.523Z,39.01
2018-06-08T13:50:59.693Z,37.25
2018-06-08T13:53:28.529Z,35.14
2018-06-08T13:55:57.507Z,34.96
2018-06-08T13:58:26.230Z,34.84
2018-06-08T14:00:55.563Z,34.14
2018-06-08T14:03:24.359Z,33.78
2018-06-08T14:05:53.530Z,33.62
2018-06-08T14:08:22.729Z,33.54
2018-06-08T14:10:51.410Z,33.12
2018-06-08T14:13:20.469Z,32.98
2018-06-08T14:15:49.448Z,33.03
2018-06-08T14:18:18.401Z,32.75
2018-06-08T14:20:48.690Z,32.61
2018-06-08T14:23:17.769Z,32.38
2018-06-08T14:25:46.520Z,32.27
2018-06-08T14:28:15.572Z,32.26
2018-06-08T14:30:44.435Z,32.20
2018-06-08T14:33:13.426Z,31.92
2018-06-08T14:35:42.196Z,31.57
2018-06-08T14:38:11.104Z,31.59
2018-06-08T14:40:40.327Z,31.70
2018-06-08T14:43:09.793Z,31.89
2018-06-08T14:45:39.121Z,32.14
2018-06-08T14:48:07.993Z,32.15
2018-06-08T14:50:37.201Z,32.15
2018-06-08T14:53:06.148Z,32.22
2018-06-08T14:55:35.119Z,32.20
2018-06-08T14:58:03.947Z,32.29
2018-06-08T15:00:33.002Z,31.67
2018-06-08T15:03:01.869Z,31.62
2018-06-08T15:05:30.733Z,31.58
2018-06-08T15:07:59.898Z,31.68
2018-06-08T15:10:29.075Z,31.56
2018-06-08T15:12:57.940Z,31.51
2018-06-08T15:15:27.001Z,31.51
2018-06-08T15:17:55.956Z,31.41
2018-06-08T15:20:25.301Z,30.97
2018-06-08T15:22:54.590Z,30.69
2018-06-08T15:25:23.841Z,30.86
2018-06-08T15:27:52.635Z,30.93
2018-06-08T15:30:21.730Z,31.05
2018-06-08T15:32:50.817Z,30.89
2018-06-08T15:35:19.846Z,31.07
2018-06-08T15:37:48.715Z,31.05
2018-06-08T15:40:17.820Z,31.14
2018-06-08T15:42:47.117Z,31.11
2018-06-08T15:45:16.023Z,31.36
2018-06-08T15:47:45.206Z,31.63
2018-06-08T15:50:14.291Z,31.69
2018-06-08T15:52:43.467Z,31.75
2018-06-08T15:55:12.732Z,31.70
2018-06-08T15:57:42.834Z,31.90
2018-06-08T16:00:11.838Z,32.10
2018-06-08T16:02:41.002Z,32.15
2018-06-08T16:05:10.137Z,32.13
2018-06-08T16:07:38.975Z,32.50
2018-06-08T16:10:09.212Z,32.91
2018-06-08T16:12:38.221Z,33.27
2018-06-08T16:15:08.792Z,33.12
2018-06-08T16:17:37.889Z,33.26
2018-06-08T16:20:07.042Z,33.41
2018-06-08T16:22:35.823Z,33.38
2018-06-08T16:25:04.735Z,32.88
2018-06-08T16:27:33.909Z,32.24
2018-06-08T16:30:02.939Z,32.24
2018-06-08T16:32:32.143Z,32.21
2018-06-08T16:35:01.083Z,32.06
2018-06-08T16:37:30.504Z,32.16
2018-06-08T16:39:59.253Z,32.02
2018-06-08T16:42:28.094Z,31.83
2018-06-08T16:44:57.236Z,31.80
2018-06-08T16:47:26.199Z,31.99
2018-06-08T16:49:55.371Z,31.96
2018-06-08T16:52:24.766Z,31.67
2018-06-08T16:54:53.991Z,31.16
2018-06-08T16:57:22.842Z,30.82
2018-06-08T16:59:51.765Z,30.60
2018-06-08T17:02:20.590Z,30.82
2018-06-08T17:04:49.556Z,31.09
2018-06-08T17:07:18.727Z,31.48
2018-06-08T17:09:47.655Z,31.75
2018-06-08T17:12:16.700Z,31.64
2018-06-08T17:14:45.815Z,31.39
2018-06-08T17:17:15.657Z,30.84
2018-06-08T17:19:44.715Z,30.02
2018-06-08T17:22:13.741Z,29.53
2018-06-08T17:24:42.586Z,29.17
2018-06-08T17:27:11.493Z,28.94
2018-06-08T17:29:40.694Z,28.49
2018-06-08T17:32:09.900Z,28.20
2018-06-08T17:34:38.790Z,28.14
2018-06-08T17:37:07.724Z,28.16
2018-06-08T17:39:36.609Z,28.11
2018-06-08T17:42:06.251Z,28.00
2018-06-08T17:44:35.529Z,27.87
2018-06-08T17:47:04.979Z,27.77
2018-06-08T17:49:34.088Z,27.61
2018-06-08T17:52:03.363Z,27.54
2018-06-08T17:54:32.731Z,27.33
2018-06-08T17:57:02.001Z,27.33
2018-06-08T17:59:31.381Z,27.10
2018-06-08T18:02:00.324Z,27.18
2018-06-08T18:04:29.295Z,27.21
2018-06-08T18:06:58.716Z,27.14
2018-06-08T18:09:27.971Z,27.13
2018-06-08T18:11:57.344Z,27.10
2018-06-08T18:14:26.484Z,27.14
2018-06-08T18:16:55.408Z,27.22
2018-06-08T18:19:24.721Z,27.21
2018-06-08T18:21:53.876Z,27.19
2018-06-08T18:24:23.240Z,27.18
2018-06-08T18:26:52.330Z,27.24
2018-06-08T18:29:21.465Z,27.24
2018-06-08T18:31:50.765Z,27.22
2018-06-08T18:34:19.960Z,27.21
2018-06-08T18:36:50.347Z,27.16
2018-06-08T18:39:19.368Z,27.15
2018-06-08T18:41:48.416Z,27.07
2018-06-08T18:44:17.656Z,27.01
2018-06-08T18:46:47.314Z,26.90
2018-06-08T18:49:16.308Z,26.86
2018-06-08T18:51:45.276Z,26.83
2018-06-08T18:54:14.764Z,26.73
2018-06-08T18:56:44.160Z,26.58
2018-06-08T18:59:13.539Z,26.50
2018-06-08T19:01:44.049Z,26.46
2018-06-08T19:04:13.073Z,26.46
2018-06-08T19:06:42.967Z,26.39
2018-06-08T19:09:12.022Z,26.30
2018-06-08T19:11:41.174Z,26.30
2018-06-08T19:14:10.304Z,26.26
2018-06-08T19:16:39.259Z,26.19
2018-06-08T19:19:08.632Z,26.15
2018-06-08T19:21:39.718Z,26.11
2018-06-08T19:24:11.867Z,26.09
2018-06-08T19:26:40.919Z,26.02
2018-06-08T19:29:13.081Z,26.00
2018-06-08T19:31:41.938Z,25.98
2018-06-08T19:34:10.855Z,25.98
2018-06-08T19:36:41.973Z,25.94
2018-06-08T19:39:10.946Z,25.92
2018-06-08T19:41:39.825Z,25.88
2018-06-08T19:44:08.903Z,25.83
2018-06-08T19:46:37.755Z,25.80
2018-06-08T19:49:06.589Z,25.80
2018-06-08T19:51:35.444Z,25.85
2018-06-08T19:54:04.664Z,25.84
2018-06-08T19:56:34.908Z,25.76
2018-06-08T19:59:04.435Z,25.72
2018-06-08T20:01:33.327Z,25.64
2018-06-08T20:04:02.233Z,25.57
2018-06-08T20:06:31.223Z,25.53
2018-06-08T20:09:00.222Z,25.46
2018-06-08T20:11:29.282Z,25.44
2018-06-08T20:14:06.183Z,25.31
2018-06-08T20:16:35.675Z,25.19
2018-06-08T20:19:04.699Z,25.14
2018-06-08T20:21:33.674Z,25.04
2018-06-08T20:24:02.748Z,25.04
2018-06-08T20:26:31.598Z,24.97
2018-06-08T20:29:00.882Z,24.93
2018-06-08T20:31:30.041Z,24.83
2018-06-08T20:33:58.977Z,24.82
2018-06-08T20:36:28.727Z,24.79
2018-06-08T20:38:57.687Z,24.75
2018-06-08T20:41:26.961Z,24.71
2018-06-08T20:43:56.111Z,24.68
2018-06-08T20:46:25.401Z,24.65
2018-06-08T20:48:54.447Z,24.62
2018-06-08T20:51:23.313Z,24.63
2018-06-08T20:53:52.305Z,24.62
2018-06-08T20:56:21.382Z,24.55
2018-06-08T20:58:50.571Z,24.48
2018-06-08T21:01:19.692Z,24.43
2018-06-08T21:03:49.433Z,24.42
2018-06-08T21:06:18.467Z,24.37
2018-06-08T21:08:48.062Z,24.32
2018-06-08T21:11:17.195Z,24.29
2018-06-08T21:13:46.325Z,24.27
2018-06-08T21:16:15.183Z,24.19
2018-06-08T21:18:44.287Z,24.17
2018-06-08T21:21:13.522Z,24.07
2018-06-08T21:23:42.567Z,24.06
2018-06-08T21:26:11.474Z,24.07
2018-06-08T21:28:40.675Z,24.03
2018-06-08T21:31:09.710Z,23.97
2018-06-08T21:33:38.665Z,23.86
2018-06-08T21:36:07.813Z,23.88
2018-06-08T21:38:37.110Z,23.86
2018-06-08T21:41:06.086Z,23.85
2018-06-08T21:43:35.353Z,23.83
2018-06-08T21:46:04.611Z,23.85
2018-06-08T21:48:33.645Z,23.85
2018-06-08T21:51:02.592Z,23.81
2018-06-08T21:53:31.657Z,23.72
2018-06-08T21:56:00.596Z,23.69
2018-06-08T21:58:29.402Z,23.67
2018-06-08T22:00:59.064Z,23.65
2018-06-08T22:03:28.190Z,23.62
2018-06-08T22:05:57.418Z,23.56
2018-06-08T22:08:27.367Z,23.47
2018-06-08T22:10:56.732Z,23.43
2018-06-08T22:13:25.764Z,23.39
2018-06-08T22:15:54.967Z,23.32
2018-06-08T22:18:24.256Z,23.24
2018-06-08T22:20:53.549Z,23.22
2018-06-08T22:23:22.577Z,23.19
2018-06-08T22:25:51.652Z,23.22
2018-06-08T22:28:20.610Z,23.16
2018-06-08T22:30:51.171Z,23.15
2018-06-08T22:33:20.551Z,23.14
2018-06-08T22:35:49.481Z,23.09
2018-06-08T22:38:18.672Z,23.08
2018-06-08T22:40:47.863Z,22.98
2018-06-08T22:43:16.897Z,22.94
2018-06-08T22:45:45.728Z,22.95
2018-06-08T22:48:14.714Z,22.89
2018-06-08T22:50:43.657Z,22.88
2018-06-08T22:53:12.666Z,22.86
2018-06-08T22:55:42.264Z,22.86
2018-06-08T22:58:11.336Z,22.81
2018-06-08T23:00:40.406Z,22.77
2018-06-08T23:03:09.326Z,22.72
2018-06-08T23:05:38.072Z,22.72
2018-06-08T23:08:06.987Z,22.68
2018-06-08T23:10:36.306Z,22.60
2018-06-08T23:13:06.054Z,22.60
2018-06-08T23:15:34.995Z,22.61
2018-06-08T23:18:05.115Z,22.56
2018-06-08T23:20:34.396Z,22.56
2018-06-08T23:23:03.375Z,22.71
2018-06-08T23:25:32.529Z,22.96
2018-06-08T23:28:01.479Z,22.85
2018-06-08T23:30:30.426Z,22.58
2018-06-08T23:32:59.770Z,22.56
2018-06-08T23:35:28.586Z,22.51
2018-06-08T23:37:57.586Z,22.52
2018-06-08T23:40:26.555Z,22.52
2018-06-08T23:42:55.438Z,22.50
2018-06-08T23:45:24.475Z,22.46
2018-06-08T23:47:53.625Z,22.42
2018-06-08T23:50:22.933Z,22.38
2018-06-08T23:52:51.804Z,22.32
2018-06-08T23:55:21.008Z,22.31
2018-06-08T23:57:50.179Z,22.26
